Portada
METAR-TAF:

METAR-TAF

Aeroports :

Gènova, Itàlia

latitud: 44-25N, longitud: 008-51E, altitud: 2 m

Observació

L'informe es va fer fa 41 minuts, a les 20:50 UTC
Vent 1 kt amb direcció variable
Temperatura 11°C
Humitat 82%
Pressió 1024 hPa
Visibilitat 10 km o més
sense núvols per sota de 1500 mi sense presència de cumulonimbus.

METAR: LIMJ 182050Z VRB01KT CAVOK 11/08 Q1024

Hora: 22:31 (21:31 UTC)

Pronòstic

L'informe es va fer fa 4 hores i 31 minuts, a les 17:00 UTC
Pronòstic vàlid del 18 a les 18 UTC al 19 a les 18 UTC
Vent 6 kt del Nord-Est
Visibilitat 10 km o més
Núvols disperses a una alçada de 2500 ft
Temporalment
l' 19 a les 12 UTC al 19 a les 16 UTC
Vent 10 kt del Sud/Sud-Oest

TAF: LIMJ 181700Z 1818/1918 04006KT 9999 SCT025 TEMPO 1912/1916 21010KT

Observacions i pronòstics meteorològics de més de 4000 aeroports (METAR i TAF).

Les estacions disponibles són els punts grocs i vermells al mapa.

Posi el ratolí al punt desitjat per veure el nom de l'estació.

Feu clic per veure les observacions i els pronòstics meteorològics.

Per canviar el mapa: feu clic els botons verds amb una creu de color negre per apropar; al botó verd amb un guió per allunyar la imatge; o en les fletxes verdes per a mapes adjacents.


METAR-TAF: